Brook Park, Ohio
Current Conditions -  °F | °C
As of 1:51 AM on Saturday 29 Nov 2014 (Local Time) from KCLE Reporting Station
Overcast Overcast  
Wind Chill: 22°   Ceiling: 7000
Heat Index: 31°   Visibility: 10mi
Dew Point: 19°   Wind: 10mph
Humidity: 61%   Direction: 180°S
Pressure: 30.12"   Gusts: NA
Location:  41.4°N, 81.82°W
Report Text: KCLE 290651Z 18009KT 10SM OVC070 M01/M07 A3012 RMK AO2 SLP210 T10061072 $
Loading
Personal Weather Stations






























Interactive Weather Map New forecast layout! Learn more

10-Day Weather Forecast

Advertisements
Track Severe Weather on mobile